Time;durP1;ratioP1;P1;durP2;ratioP2;P2;SDS_P1;SDS_P2;PMS_P1;PMS_P2;Temp;Humidity;BMP_temperature;BMP_pressure;BME280_temperature;BME280_humidity;BME280_pressure;Samples;Min_cycle;Max_cycle;Signal;HPM_P1;HPM_P2
2024/02/18 00:00:40;;;;;;;21.40;8.90;;;;;;;5.69;64.07;101275.52;105688;1254;60482;-63
2024/02/18 00:03:08;;;;;;;15.80;7.70;;;;;;;5.67;64.10;101264.85;105312;1251;65372;-63
2024/02/18 00:05:36;;;;;;;8.60;4.70;;;;;;;5.64;64.12;101265.52;105634;1255;62055;-62
2024/02/18 00:08:04;;;;;;;17.00;5.90;;;;;;;5.65;64.22;101259.70;105308;1255;64694;-61
2024/02/18 00:10:31;;;;;;;23.80;10.90;;;;;;;5.71;64.02;101258.88;105599;1257;60533;-63
2024/02/18 00:12:59;;;;;;;10.20;4.20;;;;;;;5.77;63.94;101258.62;105460;1257;60480;-62
2024/02/18 00:15:27;;;;;;;19.00;6.40;;;;;;;5.83;64.04;101252.98;105413;1258;63696;-62
2024/02/18 00:17:54;;;;;;;12.10;5.00;;;;;;;5.88;64.00;101250.83;105352;1256;61712;-60
2024/02/18 00:20:24;;;;;;;16.70;6.80;;;;;;;5.88;64.13;101249.08;105383;1251;62442;-62
2024/02/18 00:22:52;;;;;;;16.70;8.80;;;;;;;5.86;64.13;101250.92;106780;1257;60661;-65
2024/02/18 00:25:20;;;;;;;15.50;7.00;;;;;;;5.83;64.15;101255.27;105361;1257;60555;-62
2024/02/18 00:27:47;;;;;;;12.90;5.50;;;;;;;5.78;64.22;101253.01;105493;1251;63788;-61
2024/02/18 00:30:15;;;;;;;12.40;6.60;;;;;;;5.73;64.18;101251.65;105408;1256;60335;-55
2024/02/18 00:32:43;;;;;;;16.80;5.90;;;;;;;5.77;64.19;101252.54;106203;1258;62439;-58
2024/02/18 00:35:11;;;;;;;14.80;4.90;;;;;;;5.86;64.04;101256.48;105570;1251;60587;-59
2024/02/18 00:37:39;;;;;;;13.40;5.40;;;;;;;5.90;63.99;101254.57;105433;1257;59587;-58
2024/02/18 00:40:08;;;;;;;16.30;6.60;;;;;;;5.92;64.05;101257.40;105234;1256;64976;-60
2024/02/18 00:42:36;;;;;;;11.10;4.90;;;;;;;5.93;63.95;101257.21;107293;1254;60410;-58
2024/02/18 00:45:04;;;;;;;11.50;5.50;;;;;;;5.90;64.09;101256.98;105755;1257;62593;-59
2024/02/18 00:47:32;;;;;;;15.30;7.50;;;;;;;5.88;64.23;101256.58;105651;1254;60485;-60
2024/02/18 00:50:00;;;;;;;17.30;6.40;;;;;;;5.86;64.24;101250.89;105409;1257;60415;-60
2024/02/18 00:52:28;;;;;;;18.50;6.70;;;;;;;5.84;64.17;101242.48;105982;1251;64153;-60
2024/02/18 00:54:56;;;;;;;14.30;5.40;;;;;;;5.83;64.17;101242.52;105502;1257;64256;-58
2024/02/18 00:57:24;;;;;;;13.90;4.70;;;;;;;5.84;64.21;101240.21;105906;1257;62498;-57
2024/02/18 00:59:51;;;;;;;14.70;5.30;;;;;;;5.90;64.15;101243.77;105339;1254;60451;-58
2024/02/18 01:02:19;;;;;;;14.80;5.70;;;;;;;5.99;64.14;101244.95;106014;1254;60360;-58
2024/02/18 01:04:47;;;;;;;15.10;5.10;;;;;;;6.03;64.09;101245.80;105480;1251;64942;-58
2024/02/18 01:07:14;;;;;;;10.70;4.80;;;;;;;6.06;63.99;101245.47;105332;1257;60558;-58
2024/02/18 01:09:43;;;;;;;15.60;5.50;;;;;;;6.10;64.06;101244.05;105462;1254;63773;-58
2024/02/18 01:12:11;;;;;;;12.70;5.00;;;;;;;6.12;64.13;101245.55;105461;1257;60553;-59
2024/02/18 01:14:38;;;;;;;13.70;5.80;;;;;;;6.12;64.06;101241.71;105355;1251;60330;-58
2024/02/18 01:17:06;;;;;;;15.60;7.30;;;;;;;6.12;64.13;101241.89;105619;1253;64990;-59
2024/02/18 01:19:34;;;;;;;17.80;6.00;;;;;;;6.10;64.27;101243.20;106435;1251;61507;-61
2024/02/18 01:22:02;;;;;;;16.20;7.70;;;;;;;6.08;64.26;101249.20;105375;1257;62452;-60
2024/02/18 01:24:30;;;;;;;15.20;6.70;;;;;;;6.06;64.23;101243.36;105958;1251;59330;-59
2024/02/18 01:26:58;;;;;;;16.00;8.20;;;;;;;6.04;64.34;101245.91;105279;1256;60442;-60
2024/02/18 01:29:25;;;;;;;18.20;6.10;;;;;;;6.03;64.45;101242.46;105295;1252;63645;-57
2024/02/18 01:31:53;;;;;;;14.60;7.00;;;;;;;6.09;64.31;101237.64;105171;1251;61365;-59
2024/02/18 01:34:21;;;;;;;19.50;6.10;;;;;;;6.19;64.23;101238.60;105989;1254;63719;-59
2024/02/18 01:36:49;;;;;;;12.60;4.90;;;;;;;6.25;64.21;101235.51;105371;1255;60559;-59
2024/02/18 01:39:17;;;;;;;12.60;5.30;;;;;;;6.30;64.20;101234.58;105353;1257;60398;-58
2024/02/18 01:41:45;;;;;;;15.40;6.20;;;;;;;6.37;64.22;101230.73;105281;1251;63943;-60
2024/02/18 01:44:13;;;;;;;19.80;9.20;;;;;;;6.48;64.33;101223.77;106083;1251;61631;-61
2024/02/18 01:46:40;;;;;;;27.70;17.40;;;;;;;6.52;64.32;101226.56;105341;1254;63752;-61
2024/02/18 01:49:08;;;;;;;14.20;6.80;;;;;;;6.52;64.34;101227.92;105481;1251;60849;-61
2024/02/18 01:51:37;;;;;;;13.40;6.70;;;;;;;6.54;64.42;101233.60;105607;1254;60355;-60
2024/02/18 01:54:05;;;;;;;14.10;5.50;;;;;;;6.50;64.41;101231.30;105744;1253;64917;-60
2024/02/18 01:56:32;;;;;;;21.10;7.70;;;;;;;6.50;64.44;101228.39;105282;1251;61376;-58
2024/02/18 01:59:00;;;;;;;16.40;6.50;;;;;;;6.49;64.44;101225.44;105218;1251;64637;-58
2024/02/18 02:01:28;;;;;;;17.60;7.70;;;;;;;6.47;64.37;101223.80;105277;1251;60465;-59
2024/02/18 02:03:56;;;;;;;17.50;7.30;;;;;;;6.47;64.37;101228.02;105900;1251;60428;-60
2024/02/18 02:06:23;;;;;;;19.10;6.70;;;;;;;6.46;64.33;101230.67;105841;1251;64942;-61
2024/02/18 02:08:52;;;;;;;18.40;9.20;;;;;;;6.44;64.33;101226.91;105357;1257;60379;-61
2024/02/18 02:11:20;;;;;;;12.10;5.00;;;;;;;6.50;64.31;101223.32;106059;1251;63773;-60
2024/02/18 02:13:48;;;;;;;32.60;19.20;;;;;;;6.59;64.20;101224.63;105252;1254;60555;-59
2024/02/18 02:16:15;;;;;;;20.50;5.70;;;;;;;6.67;64.18;101225.94;105263;1251;60714;-62
2024/02/18 02:18:43;;;;;;;15.00;5.40;;;;;;;6.76;64.21;101227.28;105190;1251;64856;-60
2024/02/18 02:21:11;;;;;;;17.00;6.50;;;;;;;6.83;64.24;101229.52;105457;1256;60601;-60
2024/02/18 02:23:39;;;;;;;21.10;8.40;;;;;;;6.93;64.28;101231.12;105298;1257;62721;-58
2024/02/18 02:26:07;;;;;;;32.20;20.20;;;;;;;6.98;64.19;101232.25;105449;1254;61812;-66
2024/02/18 02:28:37;;;;;;;16.30;7.90;;;;;;;6.99;64.27;101226.96;105812;1251;60629;-64
2024/02/18 02:31:05;;;;;;;22.60;8.40;;;;;;;7.00;64.15;101230.55;105670;1257;63726;-64
2024/02/18 02:33:32;;;;;;;19.30;7.80;;;;;;;6.97;64.12;101233.01;105209;1251;61648;-61
2024/02/18 02:36:00;;;;;;;32.20;19.90;;;;;;;6.88;64.14;101233.62;105326;1254;63820;-61
2024/02/18 02:38:28;;;;;;;17.50;8.10;;;;;;;6.83;64.25;101238.06;105348;1254;60508;-60
2024/02/18 02:40:55;;;;;;;17.50;7.20;;;;;;;6.83;64.11;101237.36;105372;1257;60491;-60
2024/02/18 02:43:23;;;;;;;12.20;4.70;;;;;;;6.86;64.11;101237.21;105466;1254;65000;-60
2024/02/18 02:45:51;;;;;;;17.80;7.00;;;;;;;6.90;64.15;101234.41;105244;1255;61441;-60
2024/02/18 02:48:18;;;;;;;32.70;19.40;;;;;;;6.95;64.31;101235.89;105155;1256;62768;-61
2024/02/18 02:50:48;;;;;;;19.20;8.30;;;;;;;7.01;64.29;101232.27;105343;1255;60617;-60
2024/02/18 02:53:16;;;;;;;19.50;8.00;;;;;;;7.03;64.43;101231.13;105434;1255;60283;-61
2024/02/18 02:55:43;;;;;;;19.20;8.40;;;;;;;7.03;64.60;101232.13;105234;1256;63654;-60
2024/02/18 02:58:11;;;;;;;23.40;9.60;;;;;;;7.04;64.70;101237.70;105552;1251;61812;-57
2024/02/18 03:00:39;;;;;;;40.60;22.30;;;;;;;7.03;64.60;101243.52;105296;1255;62528;-62
2024/02/18 03:03:06;;;;;;;17.00;7.80;;;;;;;7.00;64.67;101243.33;105335;1257;60556;-60
2024/02/18 03:05:34;;;;;;;28.30;10.00;;;;;;;7.02;64.78;101246.00;105442;1254;60536;-61
2024/02/18 03:08:02;;;;;;;19.20;7.60;;;;;;;7.03;64.85;101244.39;105675;1256;63643;-60
2024/02/18 03:10:29;;;;;;;22.50;8.80;;;;;;;7.00;64.70;101245.23;105491;1256;60581;-63
2024/02/18 03:12:57;;;;;;;24.20;11.00;;;;;;;6.98;64.77;101247.58;105346;1254;64147;-60
2024/02/18 03:15:25;;;;;;;15.50;6.20;;;;;;;7.01;64.74;101248.83;105984;1253;60648;-61
2024/02/18 03:17:53;;;;;;;33.40;18.10;;;;;;;7.07;64.51;101248.52;105282;1252;60498;-60
2024/02/18 03:20:20;;;;;;;18.80;6.40;;;;;;;7.12;64.60;101250.39;106077;1251;64089;-61
2024/02/18 03:22:50;;;;;;;15.40;5.20;;;;;;;7.19;64.51;101253.47;105424;1257;60373;-62
2024/02/18 03:25:17;;;;;;;34.40;20.00;;;;;;;7.24;64.45;101257.24;105589;1254;63848;-61
2024/02/18 03:27:45;;;;;;;20.30;5.50;;;;;;;7.26;64.50;101260.49;105485;1256;60651;-61
2024/02/18 03:30:13;;;;;;;23.30;8.10;;;;;;;7.25;64.53;101260.50;105225;1257;60379;-61
2024/02/18 03:32:41;;;;;;;33.40;20.40;;;;;;;7.22;64.83;101259.64;105615;1251;63687;-61
2024/02/18 03:35:09;;;;;;;20.80;8.20;;;;;;;7.22;64.99;101256.63;105302;1256;62800;-60
2024/02/18 03:37:37;;;;;;;26.10;10.20;;;;;;;7.23;64.98;101256.29;106473;1253;62523;-64
2024/02/18 03:40:06;;;;;;;36.30;21.80;;;;;;;7.19;64.94;101259.40;105318;1253;60454;-64
2024/02/18 03:42:33;;;;;;;19.80;7.50;;;;;;;7.14;64.98;101261.80;105436;1251;60468;-61
2024/02/18 03:45:01;;;;;;;23.90;9.00;;;;;;;7.15;64.84;101264.02;105416;1251;63629;-63
2024/02/18 03:47:29;;;;;;;22.20;9.70;;;;;;;7.15;64.74;101262.61;105266;1258;61314;-65
2024/02/18 03:49:56;;;;;;;21.50;8.00;;;;;;;7.15;64.90;101263.83;105306;1257;62491;-66
2024/02/18 03:52:24;;;;;;;21.90;9.00;;;;;;;7.18;65.05;101269.27;105175;1255;60460;-67
2024/02/18 03:54:52;;;;;;;35.60;20.50;;;;;;;7.22;65.26;101266.78;105994;1251;60497;-61
2024/02/18 03:57:20;;;;;;;18.60;7.10;;;;;;;7.24;65.38;101267.16;105334;1251;64877;-61
2024/02/18 03:59:47;;;;;;;16.00;7.10;;;;;;;7.25;65.49;101274.11;105274;1256;60447;-61
2024/02/18 04:02:15;;;;;;;36.40;20.30;;;;;;;7.23;65.59;101273.34;105413;1257;63780;-60
2024/02/18 04:04:44;;;;;;;18.40;8.60;;;;;;;7.22;65.72;101272.71;105352;1256;60507;-62
2024/02/18 04:07:12;;;;;;;19.50;7.40;;;;;;;7.19;65.85;101272.67;105542;1257;60847;-61
2024/02/18 04:09:40;;;;;;;18.30;7.30;;;;;;;7.15;66.04;101274.11;105281;1251;65946;-60
2024/02/18 04:12:08;;;;;;;12.00;6.00;;;;;;;7.12;66.21;101278.27;105385;1257;60475;-56
2024/02/18 04:14:35;;;;;;;24.40;9.80;;;;;;;7.13;66.34;101267.40;107299;1253;64008;-58
2024/02/18 04:17:03;;;;;;;23.00;10.70;;;;;;;7.22;66.41;101269.94;105669;1254;60453;-56
2024/02/18 04:19:31;;;;;;;26.30;9.60;;;;;;;7.29;66.56;101267.29;105773;1251;60526;-62
2024/02/18 04:21:59;;;;;;;31.60;20.60;;;;;;;7.36;66.55;101271.10;105825;1251;64909;-61
2024/02/18 04:24:27;;;;;;;16.70;7.50;;;;;;;7.46;66.72;101276.55;105753;1257;60571;-65
2024/02/18 04:26:54;;;;;;;14.30;6.70;;;;;;;7.46;66.95;101280.73;105410;1253;63782;-64
2024/02/18 04:29:22;;;;;;;32.00;21.20;;;;;;;7.42;67.05;101284.77;105354;1256;60572;-64
2024/02/18 04:31:49;;;;;;;15.00;7.00;;;;;;;7.40;67.18;101289.76;105210;1254;61669;-64
2024/02/18 04:34:17;;;;;;;15.30;7.10;;;;;;;7.37;67.38;101294.62;105244;1251;64921;-64
2024/02/18 04:36:48;;;;;;;28.80;17.00;;;;;;;7.36;67.63;101291.73;105351;1257;60457;-62
2024/02/18 04:39:16;;;;;;;14.90;5.80;;;;;;;7.41;67.67;101292.52;105447;1254;62537;-65
2024/02/18 04:41:43;;;;;;;17.00;6.20;;;;;;;7.46;67.44;101295.53;105284;1254;60476;-63
2024/02/18 04:44:11;;;;;;;12.30;4.80;;;;;;;7.52;67.42;101302.59;105230;1256;60322;-64
2024/02/18 04:46:39;;;;;;;14.20;5.30;;;;;;;7.60;67.51;101301.66;105115;1257;63667;-63
2024/02/18 04:49:07;;;;;;;28.40;17.50;;;;;;;7.71;67.54;101299.81;105286;1251;60491;-62
2024/02/18 04:51:35;;;;;;;31.30;12.10;;;;;;;7.88;67.76;101300.66;105296;1253;63761;-63
2024/02/18 04:54:02;;;;;;;34.50;19.60;;;;;;;8.10;68.22;101303.34;105726;1254;60526;-61
2024/02/18 04:56:30;;;;;;;16.40;7.20;;;;;;;8.33;68.21;101306.94;105365;1251;60500;-60
2024/02/18 04:58:58;;;;;;;29.80;18.00;;;;;;;8.44;67.85;101312.69;105359;1251;63737;-63
2024/02/18 05:01:25;;;;;;;17.20;6.00;;;;;;;8.46;67.50;101317.26;105269;1251;61595;-62
2024/02/18 05:03:53;;;;;;;13.70;6.00;;;;;;;8.49;66.96;101318.00;105298;1256;62601;-63
2024/02/18 05:06:21;;;;;;;24.00;15.50;;;;;;;8.51;66.34;101318.89;107543;1254;60407;-64
2024/02/18 05:08:49;;;;;;;17.10;6.20;;;;;;;8.52;66.05;101317.98;105290;1254;60611;-64
2024/02/18 05:11:17;;;;;;;27.20;16.70;;;;;;;8.52;65.98;101317.27;105261;1257;63721;-68
2024/02/18 05:13:46;;;;;;;16.70;6.00;;;;;;;8.52;65.86;101323.06;106121;1251;62000;-63
2024/02/18 05:16:14;;;;;;;26.00;17.10;;;;;;;8.47;65.73;101326.48;105253;1257;62467;-68
2024/02/18 05:18:45;;;;;;;14.70;5.00;;;;;;;8.37;65.52;101330.98;105070;1257;60464;-57
2024/02/18 05:21:14;;;;;;;12.00;5.60;;;;;;;8.32;65.35;101333.21;105482;1253;60537;-59
2024/02/18 05:23:41;;;;;;;24.60;16.50;;;;;;;8.31;65.26;101334.84;105373;1251;64945;-64
2024/02/18 05:26:10;;;;;;;16.00;6.10;;;;;;;8.30;65.25;101336.28;105440;1251;61651;-63
2024/02/18 05:28:38;;;;;;;28.00;17.90;;;;;;;8.26;65.37;101338.45;105513;1256;62422;-67
2024/02/18 05:31:22;;;;;;;16.80;6.70;;;;;;;8.21;65.72;101334.52;105265;1257;61795;-61
2024/02/18 05:33:51;;;;;;;30.90;18.30;;;;;;;8.18;65.78;101333.48;105285;1251;60729;-55
2024/02/18 05:36:21;;;;;;;18.10;6.80;;;;;;;8.15;65.91;101335.91;105989;1254;63687;-56
2024/02/18 05:38:49;;;;;;;14.90;9.20;;;;;;;8.19;65.89;101339.55;105354;1254;61333;-63
2024/02/18 05:41:17;;;;;;;17.40;6.50;;;;;;;8.24;65.83;101340.48;104970;1254;62465;-64
2024/02/18 05:43:45;;;;;;;25.70;16.40;;;;;;;8.30;65.85;101342.79;105205;1251;60683;-62
2024/02/18 05:46:13;;;;;;;17.00;6.00;;;;;;;8.35;65.89;101346.30;105089;1251;60601;-61
2024/02/18 05:48:40;;;;;;;12.00;5.30;;;;;;;8.40;66.02;101348.69;105123;1251;64965;-51
2024/02/18 05:51:08;;;;;;;25.50;16.60;;;;;;;8.41;66.03;101352.51;105156;1257;60448;-56
2024/02/18 05:53:40;;;;;;;11.90;5.00;;;;;;;8.39;66.05;101355.38;105658;1254;64607;-52
2024/02/18 05:56:08;;;;;;;27.60;16.80;;;;;;;8.35;66.00;101355.22;106114;1251;60449;-59
2024/02/18 05:58:36;;;;;;;15.90;9.90;;;;;;;8.34;66.16;101353.93;107269;1257;60666;-61
2024/02/18 06:01:04;;;;;;;10.90;4.10;;;;;;;8.39;65.97;101357.48;105121;1251;63832;-59
2024/02/18 06:03:31;;;;;;;22.90;15.30;;;;;;;8.41;65.67;101362.46;109328;1251;60326;-64
2024/02/18 06:05:59;;;;;;;12.70;5.50;;;;;;;8.51;65.73;101361.05;109300;1253;62453;-57
2024/02/18 06:08:27;;;;;;;22.90;14.40;;;;;;;8.64;65.89;101367.34;109277;1253;58735;-68
2024/02/18 06:10:54;;;;;;;12.10;5.50;;;;;;;8.74;65.94;101371.48;108987;1251;292716;-64
2024/02/18 06:25:45;;;;;;;10.70;4.30;;;;;;;8.89;64.95;101386.98;102827;1283;604304;-65
2024/02/18 06:28:13;;;;;;;12.60;8.40;;;;;;;9.59;62.07;101384.63;103981;1267;110144;-69
2024/02/18 06:30:41;;;;;;;14.40;9.20;;;;;;;9.59;61.84;101387.61;108301;1264;57454;-69
2024/02/18 06:33:09;;;;;;;13.90;9.10;;;;;;;9.56;61.80;101395.28;108145;1264;62021;-72
2024/02/18 06:35:36;;;;;;;13.30;8.60;;;;;;;9.52;61.63;101394.52;108343;1264;63334;-60
2024/02/18 06:38:04;;;;;;;13.20;8.20;;;;;;;9.46;61.61;101397.46;105334;1266;62454;-62
2024/02/18 06:40:32;;;;;;;11.10;8.00;;;;;;;9.44;61.55;101399.67;104394;1269;58806;-59
2024/02/18 06:42:59;;;;;;;7.20;3.00;;;;;;;9.45;61.09;101397.35;104265;1270;59373;-59
2024/02/18 06:45:27;;;;;;;12.70;8.40;;;;;;;9.41;60.96;101398.48;104167;1265;62107;-58
2024/02/18 06:47:55;;;;;;;12.90;7.90;;;;;;;9.35;61.06;101404.23;104344;1270;60430;-68
2024/02/18 06:50:22;;;;;;;9.40;3.90;;;;;;;9.30;61.18;101409.05;107505;1266;62528;-58
2024/02/18 06:52:50;;;;;;;8.30;2.80;;;;;;;9.29;61.41;101412.48;105089;1267;59765;-57
2024/02/18 06:55:19;;;;;;;11.20;6.20;;;;;;;9.25;60.55;101412.50;105265;1265;59743;-65
2024/02/18 06:57:47;;;;;;;8.30;2.70;;;;;;;9.20;60.17;101417.36;104498;1264;64110;-63
2024/02/18 07:00:16;;;;;;;11.00;6.00;;;;;;;9.11;60.31;101421.89;104382;1264;61415;-63
2024/02/18 07:02:46;;;;;;;6.40;2.10;;;;;;;9.03;60.47;101418.36;105013;1261;63701;-73
2024/02/18 07:05:14;;;;;;;9.90;4.90;;;;;;;8.97;60.38;101423.23;105033;1260;59724;-67
2024/02/18 07:07:42;;;;;;;6.00;1.70;;;;;;;8.91;60.36;101422.50;105083;1263;59547;-64
2024/02/18 07:10:10;;;;;;;8.20;4.10;;;;;;;8.90;60.26;101424.84;105191;1263;64112;-62
2024/02/18 07:12:39;;;;;;;4.70;1.90;;;;;;;8.88;60.29;101429.48;104935;1258;63522;-70
2024/02/18 07:15:07;;;;;;;8.90;4.60;;;;;;;8.85;60.34;101430.88;104909;1263;62422;-73
2024/02/18 07:17:35;;;;;;;6.40;1.90;;;;;;;8.81;60.47;101430.95;105336;1260;59666;-69
2024/02/18 07:20:05;;;;;;;7.90;3.90;;;;;;;8.83;60.44;101434.35;105110;1264;59606;-67
2024/02/18 07:22:33;;;;;;;5.80;2.90;;;;;;;8.89;60.55;101435.36;105337;1257;64169;-66
2024/02/18 07:25:02;;;;;;;8.00;3.60;;;;;;;8.92;60.26;101436.27;105104;1257;61618;-65
2024/02/18 07:27:30;;;;;;;4.40;1.40;;;;;;;8.91;60.30;101439.13;105241;1258;62529;-68
2024/02/18 07:29:58;;;;;;;7.40;3.90;;;;;;;8.91;60.19;101442.77;104773;1258;60008;-62
2024/02/18 07:32:25;;;;;;;6.00;1.80;;;;;;;8.89;60.16;101440.98;104894;1258;59768;-61
2024/02/18 07:34:53;;;;;;;6.20;3.80;;;;;;;8.90;59.95;101445.11;104925;1257;64217;-67
2024/02/18 07:37:21;;;;;;;4.60;1.30;;;;;;;8.93;59.81;101447.77;104598;1261;60241;-60
2024/02/18 07:39:49;;;;;;;6.90;2.90;;;;;;;8.94;59.89;101450.17;105349;1257;62711;-67
2024/02/18 07:42:16;;;;;;;6.60;3.40;;;;;;;8.93;59.81;101454.77;104681;1263;59728;-68
2024/02/18 07:44:44;;;;;;;4.00;1.30;;;;;;;8.91;59.75;101456.13;104675;1257;59937;-65
2024/02/18 07:47:12;;;;;;;4.70;1.70;;;;;;;8.92;59.42;101457.80;104807;1257;65902;-62
2024/02/18 07:49:40;;;;;;;5.20;2.70;;;;;;;8.98;59.16;101462.16;104858;1263;60219;-67
2024/02/18 07:52:07;;;;;;;3.80;1.10;;;;;;;9.03;59.03;101462.77;104667;1260;64088;-63
2024/02/18 07:54:35;;;;;;;7.90;2.30;;;;;;;8.99;58.71;101458.44;104742;1264;59660;-68
2024/02/18 07:57:04;;;;;;;4.10;1.60;;;;;;;8.97;58.62;101465.77;104899;1257;59772;-66
2024/02/18 07:59:31;;;;;;;3.20;0.80;;;;;;;8.95;58.65;101471.83;105166;1258;64284;-67
2024/02/18 08:02:03;;;;;;;4.70;1.90;;;;;;;8.93;58.34;101473.46;104598;1264;60276;-70
2024/02/18 08:04:31;;;;;;;3.50;1.10;;;;;;;8.98;58.11;101475.48;105014;1257;62487;-63
2024/02/18 08:06:59;;;;;;;3.60;0.90;;;;;;;8.99;57.88;101475.06;105448;1259;59605;-63
2024/02/18 08:09:27;;;;;;;5.40;1.60;;;;;;;9.01;57.87;101479.14;105371;1262;59675;-72
2024/02/18 08:11:55;;;;;;;2.40;0.60;;;;;;;8.99;57.34;101482.61;105328;1257;63087;-68
2024/02/18 08:14:23;;;;;;;3.80;0.80;;;;;;;8.94;56.98;101484.12;104938;1263;60091;-67
2024/02/18 08:16:51;;;;;;;6.10;1.80;;;;;;;8.90;57.04;101484.98;105529;1263;62446;-67
2024/02/18 08:19:20;;;;;;;3.60;0.90;;;;;;;8.96;56.85;101487.53;105386;1257;59564;-67
2024/02/18 08:21:48;;;;;;;3.70;1.50;;;;;;;8.99;56.89;101490.30;104745;1257;59710;-68
2024/02/18 08:24:16;;;;;;;3.50;0.50;;;;;;;8.97;56.23;101494.27;104903;1263;64381;-67
2024/02/18 08:26:43;;;;;;;1.40;0.20;;;;;;;8.90;55.31;101497.27;104741;1264;60245;-63
2024/02/18 08:29:11;;;;;;;2.50;0.80;;;;;;;8.86;55.30;101494.70;104822;1260;63739;-67
2024/02/18 08:31:38;;;;;;;2.50;0.50;;;;;;;8.79;54.98;101500.52;104862;1258;59852;-63
2024/02/18 08:34:06;;;;;;;1.90;0.50;;;;;;;8.70;54.77;101503.45;104660;1257;59590;-61
2024/02/18 08:36:34;;;;;;;3.20;0.90;;;;;;;8.68;54.82;101505.31;108793;1257;64625;-60
2024/02/18 08:39:03;;;;;;;2.70;0.60;;;;;;;8.67;55.01;101511.80;108818;1259;60236;-61
2024/02/18 08:41:31;;;;;;;2.70;0.80;;;;;;;8.71;55.01;101515.45;108784;1257;63711;-64
2024/02/18 08:44:00;;;;;;;1.70;0.50;;;;;;;8.68;54.96;101517.73;108753;1260;60021;-64
2024/02/18 08:46:28;;;;;;;1.60;0.50;;;;;;;8.59;55.06;101534.84;108777;1257;57489;-63
2024/02/18 08:48:56;;;;;;;2.40;0.50;;;;;;;8.40;55.08;101545.60;106170;1257;62836;-70
2024/02/18 08:51:24;;;;;;;1.20;0.40;;;;;;;8.09;55.62;101556.77;104813;1263;60235;-68
2024/02/18 08:53:52;;;;;;;1.10;0.30;;;;;;;7.80;56.46;101551.24;105699;1260;62527;-67
2024/02/18 08:56:20;;;;;;;2.60;0.80;;;;;;;7.48;57.33;101559.80;105094;1259;59682;-64
2024/02/18 08:58:48;;;;;;;3.00;0.50;;;;;;;7.21;58.23;101571.52;104887;1260;59705;-65
2024/02/18 09:01:18;;;;;;;1.80;0.50;;;;;;;7.06;58.95;101574.87;104953;1257;62917;-57
2024/02/18 09:03:46;;;;;;;2.40;0.60;;;;;;;6.88;59.72;101580.52;104970;1257;61506;-57
2024/02/18 09:06:14;;;;;;;1.50;0.50;;;;;;;6.74;60.36;101581.67;105119;1262;62450;-57
2024/02/18 09:08:42;;;;;;;1.10;0.30;;;;;;;6.63;60.83;101587.93;104913;1257;59729;-55
2024/02/18 09:11:10;;;;;;;1.10;0.20;;;;;;;6.61;60.96;101586.63;104848;1263;59634;-56
2024/02/18 09:13:38;;;;;;;1.30;0.20;;;;;;;6.67;61.02;101590.53;105350;1258;64146;-53
2024/02/18 09:16:05;;;;;;;2.10;0.40;;;;;;;6.67;61.24;101596.67;104913;1263;60315;-56
2024/02/18 09:18:33;;;;;;;1.70;0.40;;;;;;;6.68;61.27;101598.90;105110;1263;62524;-53
2024/02/18 09:21:05;;;;;;;4.60;0.50;;;;;;;6.78;61.18;101604.05;105200;1260;60537;-56
2024/02/18 09:23:32;;;;;;;2.70;0.60;;;;;;;6.81;60.96;101600.41;105366;1257;59676;-54
2024/02/18 09:26:02;;;;;;;2.20;0.50;;;;;;;6.79;60.63;101606.78;104901;1262;64142;-55
2024/02/18 09:28:29;;;;;;;2.70;0.50;;;;;;;6.81;60.38;101613.34;104670;1257;61379;-56
2024/02/18 09:31:02;;;;;;;2.00;0.60;;;;;;;6.80;59.72;101608.30;104486;1260;63737;-56
2024/02/18 09:33:30;;;;;;;3.20;0.80;;;;;;;6.80;59.07;101609.69;108670;1260;59141;-55
2024/02/18 09:35:58;;;;;;;2.80;0.70;;;;;;;6.75;58.84;101613.42;108793;1257;57658;-55
2024/02/18 09:38:25;;;;;;;2.90;0.60;;;;;;;6.72;58.98;101619.82;108752;1257;64128;-56
2024/02/18 09:40:54;;;;;;;2.00;0.50;;;;;;;6.70;58.93;101622.51;108791;1257;61765;-55
2024/02/18 09:43:24;;;;;;;3.50;1.10;;;;;;;6.69;58.95;101627.09;108743;1260;62551;-54
2024/02/18 09:45:53;;;;;;;3.00;0.90;;;;;;;6.66;59.09;101626.70;108757;1260;57797;-55
2024/02/18 09:48:21;;;;;;;2.10;0.60;;;;;;;6.62;58.65;101628.46;107219;1260;59852;-55
2024/02/18 09:50:49;;;;;;;2.90;0.90;;;;;;;6.55;58.30;101630.16;105444;1257;62823;-57
2024/02/18 09:53:17;;;;;;;3.10;0.70;;;;;;;6.42;57.73;101628.94;104703;1265;62553;-55
2024/02/18 09:55:48;;;;;;;2.80;1.40;;;;;;;6.40;57.37;101628.88;105011;1263;62469;-56
2024/02/18 09:58:18;;;;;;;3.70;0.90;;;;;;;6.37;57.35;101634.05;108171;1259;59320;-57
2024/02/18 10:00:46;;;;;;;2.70;0.70;;;;;;;6.33;57.42;101635.95;105668;1263;59699;-55
2024/02/18 10:03:14;;;;;;;2.60;0.70;;;;;;;6.33;57.42;101637.52;104846;1257;62826;-55
2024/02/18 10:05:42;;;;;;;1.90;0.60;;;;;;;6.30;57.40;101637.99;104966;1258;72683;-56
2024/02/18 10:08:10;;;;;;;2.90;0.80;;;;;;;6.34;56.67;101639.08;104789;1260;63847;-56
2024/02/18 10:10:38;;;;;;;2.50;0.70;;;;;;;6.39;56.47;101640.23;104924;1259;59804;-55
2024/02/18 10:13:06;;;;;;;2.30;0.60;;;;;;;6.30;56.16;101643.23;105307;1257;59662;-56
2024/02/18 10:15:34;;;;;;;2.80;0.80;;;;;;;6.24;56.23;101639.63;105356;1257;62941;-58
2024/02/18 10:18:03;;;;;;;3.30;0.80;;;;;;;6.09;56.19;101638.15;104933;1262;60507;-55
2024/02/18 10:20:31;;;;;;;3.10;1.20;;;;;;;5.97;56.13;101639.31;106095;1259;64737;-56
2024/02/18 10:22:59;;;;;;;4.00;1.00;;;;;;;5.98;56.19;101645.08;105208;1260;61856;-55
2024/02/18 10:25:27;;;;;;;3.50;1.10;;;;;;;5.96;56.20;101651.05;105239;1259;59735;-54
2024/02/18 10:27:58;;;;;;;2.90;0.80;;;;;;;5.90;56.19;101653.17;105490;1257;63088;-59
2024/02/18 10:30:26;;;;;;;3.40;1.00;;;;;;;5.81;55.81;101653.55;105381;1257;61738;-58
2024/02/18 10:32:54;;;;;;;2.60;0.60;;;;;;;5.68;55.53;101660.14;105366;1259;62434;-57
2024/02/18 10:35:23;;;;;;;3.50;0.90;;;;;;;5.63;55.42;101661.56;105443;1259;60565;-56
2024/02/18 10:37:53;;;;;;;2.70;0.80;;;;;;;5.66;55.19;101660.56;105617;1262;60461;-56
2024/02/18 10:40:33;;;;;;;2.20;0.80;;;;;;;5.70;54.51;101656.95;105619;1257;64954;-57
2024/02/18 10:43:01;;;;;;;2.00;0.70;;;;;;;5.64;53.85;101658.72;105425;1258;61405;-56
2024/02/18 10:45:29;;;;;;;3.30;0.90;;;;;;;5.58;53.57;101661.57;104919;1257;63703;-57
2024/02/18 10:48:00;;;;;;;2.40;0.70;;;;;;;5.50;53.51;101663.81;105320;1259;60455;-57
2024/02/18 10:50:30;;;;;;;3.00;0.60;;;;;;;5.47;53.64;101668.98;105390;1262;60364;-56
2024/02/18 10:52:59;;;;;;;1.80;0.60;;;;;;;5.41;53.85;101667.11;105365;1257;64949;-56
2024/02/18 10:56:01;;;;;;;2.80;0.80;;;;;;;5.44;53.84;101669.25;105352;1259;60577;-55
2024/02/18 10:58:35;;;;;;;3.10;1.00;;;;;;;5.47;54.13;101670.18;106130;1260;64139;-57
2024/02/18 11:01:03;;;;;;;2.20;0.40;;;;;;;5.43;54.06;101672.23;104754;1257;60377;-56
2024/02/18 11:03:44;;;;;;;2.20;0.50;;;;;;;5.39;53.95;101674.13;105372;1257;60470;-57
2024/02/18 11:06:13;;;;;;;2.80;0.90;;;;;;;5.33;54.22;101674.89;104996;1257;63690;-57
2024/02/18 11:08:43;;;;;;;3.30;1.20;;;;;;;5.32;54.16;101681.17;104868;1263;60534;-57
2024/02/18 11:11:12;;;;;;;3.20;0.60;;;;;;;5.35;53.97;101683.31;105007;1264;64313;-56
2024/02/18 11:13:40;;;;;;;2.80;0.70;;;;;;;5.31;53.77;101683.83;104805;1260;60561;-60
2024/02/18 11:16:10;;;;;;;3.00;1.00;;;;;;;5.20;53.82;101690.31;105078;1262;60374;-57
2024/02/18 11:18:38;;;;;;;2.00;0.60;;;;;;;5.08;54.09;101696.66;104472;1257;76028;-57
2024/02/18 11:21:06;;;;;;;2.50;0.60;;;;;;;5.02;54.61;101702.98;105991;1257;60559;-59
2024/02/18 11:23:34;;;;;;;3.30;1.10;;;;;;;4.99;55.54;101705.51;105001;1258;62459;-58
2024/02/18 11:26:01;;;;;;;2.30;0.50;;;;;;;5.02;56.02;101709.39;106086;1263;60553;-56
2024/02/18 11:28:32;;;;;;;2.20;0.90;;;;;;;4.97;56.48;101711.67;104757;1265;60451;-57
2024/02/18 11:31:00;;;;;;;4.20;1.20;;;;;;;4.84;56.92;101703.80;104845;1265;63639;-58
2024/02/18 11:33:31;;;;;;;2.50;0.60;;;;;;;4.75;56.94;101709.27;105014;1260;60399;-55
2024/02/18 11:36:12;;;;;;;2.70;0.90;;;;;;;4.70;57.01;101707.03;105281;1265;62475;-57